sensor_id;sensor_type;location;lat;lon;timestamp;P1;durP1;ratioP1;P2;durP2;ratioP2
72437;SDS011;60444;43.534;-5.674;2023-04-01T00:00:47;19.85;;;4.63;;
72437;SDS011;60444;43.534;-5.674;2023-04-01T00:03:13;14.93;;;3.10;;
72437;SDS011;60444;43.534;-5.674;2023-04-01T00:05:39;16.20;;;3.13;;
72437;SDS011;60444;43.534;-5.674;2023-04-01T00:08:05;15.13;;;2.90;;
72437;SDS011;60444;43.534;-5.674;2023-04-01T00:10:30;15.27;;;3.00;;
72437;SDS011;60444;43.534;-5.674;2023-04-01T00:12:55;13.02;;;2.90;;
72437;SDS011;60444;43.534;-5.674;2023-04-01T00:15:21;19.60;;;4.03;;
72437;SDS011;60444;43.534;-5.674;2023-04-01T00:17:46;14.63;;;2.90;;
72437;SDS011;60444;43.534;-5.674;2023-04-01T00:20:12;14.00;;;3.20;;
72437;SDS011;60444;43.534;-5.674;2023-04-01T00:22:39;13.88;;;3.42;;
72437;SDS011;60444;43.534;-5.674;2023-04-01T00:25:06;21.95;;;4.38;;
72437;SDS011;60444;43.534;-5.674;2023-04-01T00:27:31;14.57;;;3.42;;
72437;SDS011;60444;43.534;-5.674;2023-04-01T00:29:57;23.13;;;4.80;;
72437;SDS011;60444;43.534;-5.674;2023-04-01T00:32:22;16.20;;;3.33;;
72437;SDS011;60444;43.534;-5.674;2023-04-01T00:34:51;12.47;;;2.77;;
72437;SDS011;60444;43.534;-5.674;2023-04-01T00:37:20;12.57;;;2.85;;
72437;SDS011;60444;43.534;-5.674;2023-04-01T00:39:46;13.60;;;2.90;;
72437;SDS011;60444;43.534;-5.674;2023-04-01T00:42:12;12.75;;;3.03;;
72437;SDS011;60444;43.534;-5.674;2023-04-01T00:44:38;16.37;;;3.83;;
72437;SDS011;60444;43.534;-5.674;2023-04-01T00:47:05;21.08;;;4.95;;
72437;SDS011;60444;43.534;-5.674;2023-04-01T00:49:32;13.05;;;3.25;;
72437;SDS011;60444;43.534;-5.674;2023-04-01T00:52:00;13.18;;;3.15;;
72437;SDS011;60444;43.534;-5.674;2023-04-01T00:54:28;13.27;;;3.47;;
72437;SDS011;60444;43.534;-5.674;2023-04-01T00:56:56;16.52;;;3.80;;
72437;SDS011;60444;43.534;-5.674;2023-04-01T00:59:33;14.85;;;3.50;;
72437;SDS011;60444;43.534;-5.674;2023-04-01T01:02:03;14.85;;;3.90;;
72437;SDS011;60444;43.534;-5.674;2023-04-01T01:04:33;11.20;;;2.72;;
72437;SDS011;60444;43.534;-5.674;2023-04-01T01:12:45;14.07;;;2.92;;
72437;SDS011;60444;43.534;-5.674;2023-04-01T01:20:53;14.27;;;3.70;;
72437;SDS011;60444;43.534;-5.674;2023-04-01T01:32:06;14.63;;;3.55;;
72437;SDS011;60444;43.534;-5.674;2023-04-01T01:37:32;12.88;;;3.80;;
72437;SDS011;60444;43.534;-5.674;2023-04-01T01:39:59;13.40;;;3.22;;
72437;SDS011;60444;43.534;-5.674;2023-04-01T01:42:28;14.07;;;4.00;;
72437;SDS011;60444;43.534;-5.674;2023-04-01T01:44:56;15.90;;;4.80;;
72437;SDS011;60444;43.534;-5.674;2023-04-01T01:47:25;15.93;;;4.30;;
72437;SDS011;60444;43.534;-5.674;2023-04-01T01:49:53;21.70;;;5.43;;
72437;SDS011;60444;43.534;-5.674;2023-04-01T01:52:21;23.48;;;5.70;;
72437;SDS011;60444;43.534;-5.674;2023-04-01T01:54:53;24.38;;;6.40;;
72437;SDS011;60444;43.534;-5.674;2023-04-01T01:57:25;19.05;;;4.22;;
72437;SDS011;60444;43.534;-5.674;2023-04-01T01:59:55;16.23;;;5.20;;
72437;SDS011;60444;43.534;-5.674;2023-04-01T02:02:26;12.60;;;4.30;;
72437;SDS011;60444;43.534;-5.674;2023-04-01T02:04:56;10.55;;;3.72;;
72437;SDS011;60444;43.534;-5.674;2023-04-01T02:07:27;17.70;;;5.22;;
72437;SDS011;60444;43.534;-5.674;2023-04-01T02:09:58;15.35;;;4.00;;
72437;SDS011;60444;43.534;-5.674;2023-04-01T02:12:24;21.80;;;5.73;;
72437;SDS011;60444;43.534;-5.674;2023-04-01T02:14:54;16.38;;;5.63;;
72437;SDS011;60444;43.534;-5.674;2023-04-01T02:17:45;15.13;;;4.35;;
72437;SDS011;60444;43.534;-5.674;2023-04-01T02:20:14;20.97;;;5.83;;
72437;SDS011;60444;43.534;-5.674;2023-04-01T02:22:50;27.02;;;7.00;;
72437;SDS011;60444;43.534;-5.674;2023-04-01T02:25:28;26.92;;;5.95;;
72437;SDS011;60444;43.534;-5.674;2023-04-01T02:27:58;22.67;;;5.13;;
72437;SDS011;60444;43.534;-5.674;2023-04-01T02:30:26;20.27;;;4.82;;
72437;SDS011;60444;43.534;-5.674;2023-04-01T02:32:55;17.53;;;4.03;;
72437;SDS011;60444;43.534;-5.674;2023-04-01T02:35:22;16.75;;;3.97;;
72437;SDS011;60444;43.534;-5.674;2023-04-01T02:37:48;29.70;;;5.80;;
72437;SDS011;60444;43.534;-5.674;2023-04-01T02:40:15;21.55;;;3.72;;
72437;SDS011;60444;43.534;-5.674;2023-04-01T02:42:42;13.90;;;2.83;;
72437;SDS011;60444;43.534;-5.674;2023-04-01T02:45:07;16.07;;;2.67;;
72437;SDS011;60444;43.534;-5.674;2023-04-01T02:47:34;16.75;;;2.78;;
72437;SDS011;60444;43.534;-5.674;2023-04-01T02:49:59;15.83;;;3.70;;
72437;SDS011;60444;43.534;-5.674;2023-04-01T02:52:25;17.00;;;3.67;;
72437;SDS011;60444;43.534;-5.674;2023-04-01T02:54:52;15.43;;;2.70;;
72437;SDS011;60444;43.534;-5.674;2023-04-01T02:57:17;13.82;;;3.08;;
72437;SDS011;60444;43.534;-5.674;2023-04-01T02:59:43;18.40;;;4.03;;
72437;SDS011;60444;43.534;-5.674;2023-04-01T03:02:08;19.67;;;2.92;;
72437;SDS011;60444;43.534;-5.674;2023-04-01T03:04:34;15.57;;;3.77;;
72437;SDS011;60444;43.534;-5.674;2023-04-01T03:06:59;15.10;;;3.40;;
72437;SDS011;60444;43.534;-5.674;2023-04-01T03:09:25;13.65;;;3.17;;
72437;SDS011;60444;43.534;-5.674;2023-04-01T03:11:50;13.33;;;3.30;;
72437;SDS011;60444;43.534;-5.674;2023-04-01T03:14:16;15.10;;;3.57;;
72437;SDS011;60444;43.534;-5.674;2023-04-01T03:16:41;14.32;;;3.15;;
72437;SDS011;60444;43.534;-5.674;2023-04-01T03:19:07;9.17;;;2.87;;
72437;SDS011;60444;43.534;-5.674;2023-04-01T03:21:32;14.93;;;3.20;;
72437;SDS011;60444;43.534;-5.674;2023-04-01T03:23:58;11.45;;;2.88;;
72437;SDS011;60444;43.534;-5.674;2023-04-01T03:26:24;14.17;;;3.13;;
72437;SDS011;60444;43.534;-5.674;2023-04-01T03:28:51;12.65;;;3.40;;
72437;SDS011;60444;43.534;-5.674;2023-04-01T03:31:17;11.93;;;3.20;;
72437;SDS011;60444;43.534;-5.674;2023-04-01T03:33:43;11.18;;;2.47;;
72437;SDS011;60444;43.534;-5.674;2023-04-01T03:36:08;12.67;;;3.80;;
72437;SDS011;60444;43.534;-5.674;2023-04-01T03:38:36;13.43;;;3.53;;
72437;SDS011;60444;43.534;-5.674;2023-04-01T03:41:02;12.73;;;3.08;;
72437;SDS011;60444;43.534;-5.674;2023-04-01T03:43:28;15.43;;;3.40;;
72437;SDS011;60444;43.534;-5.674;2023-04-01T03:45:53;16.08;;;3.20;;
72437;SDS011;60444;43.534;-5.674;2023-04-01T03:48:19;11.33;;;3.50;;
72437;SDS011;60444;43.534;-5.674;2023-04-01T03:50:45;15.65;;;3.58;;
72437;SDS011;60444;43.534;-5.674;2023-04-01T03:53:11;12.50;;;3.03;;
72437;SDS011;60444;43.534;-5.674;2023-04-01T03:55:37;12.53;;;3.00;;
72437;SDS011;60444;43.534;-5.674;2023-04-01T03:58:03;14.90;;;3.60;;
72437;SDS011;60444;43.534;-5.674;2023-04-01T04:00:29;16.73;;;4.90;;
72437;SDS011;60444;43.534;-5.674;2023-04-01T04:02:55;22.35;;;6.68;;
72437;SDS011;60444;43.534;-5.674;2023-04-01T04:05:22;14.93;;;3.80;;
72437;SDS011;60444;43.534;-5.674;2023-04-01T04:07:48;18.92;;;5.88;;
72437;SDS011;60444;43.534;-5.674;2023-04-01T04:10:15;22.57;;;7.93;;
72437;SDS011;60444;43.534;-5.674;2023-04-01T04:12:40;19.05;;;5.00;;
72437;SDS011;60444;43.534;-5.674;2023-04-01T04:15:06;24.20;;;7.80;;
72437;SDS011;60444;43.534;-5.674;2023-04-01T04:17:32;22.10;;;8.95;;
72437;SDS011;60444;43.534;-5.674;2023-04-01T04:19:58;29.37;;;9.40;;
72437;SDS011;60444;43.534;-5.674;2023-04-01T04:22:23;28.00;;;8.33;;
72437;SDS011;60444;43.534;-5.674;2023-04-01T04:24:49;22.83;;;8.13;;
72437;SDS011;60444;43.534;-5.674;2023-04-01T04:27:15;15.03;;;5.40;;
72437;SDS011;60444;43.534;-5.674;2023-04-01T04:29:40;23.80;;;5.93;;
72437;SDS011;60444;43.534;-5.674;2023-04-01T04:32:06;24.13;;;6.70;;
72437;SDS011;60444;43.534;-5.674;2023-04-01T04:34:31;19.40;;;8.50;;
72437;SDS011;60444;43.534;-5.674;2023-04-01T04:36:57;13.95;;;4.45;;
72437;SDS011;60444;43.534;-5.674;2023-04-01T04:39:23;17.77;;;5.60;;
72437;SDS011;60444;43.534;-5.674;2023-04-01T04:41:48;26.50;;;8.50;;
72437;SDS011;60444;43.534;-5.674;2023-04-01T04:44:14;21.10;;;7.63;;
72437;SDS011;60444;43.534;-5.674;2023-04-01T04:46:39;18.37;;;5.87;;
72437;SDS011;60444;43.534;-5.674;2023-04-01T04:49:05;14.13;;;4.57;;
72437;SDS011;60444;43.534;-5.674;2023-04-01T04:51:31;12.32;;;4.50;;
72437;SDS011;60444;43.534;-5.674;2023-04-01T04:54:01;13.82;;;3.90;;
72437;SDS011;60444;43.534;-5.674;2023-04-01T04:56:30;14.55;;;5.00;;
72437;SDS011;60444;43.534;-5.674;2023-04-01T04:58:56;10.50;;;3.67;;
72437;SDS011;60444;43.534;-5.674;2023-04-01T05:01:24;12.02;;;3.90;;
72437;SDS011;60444;43.534;-5.674;2023-04-01T05:03:50;12.30;;;4.97;;
72437;SDS011;60444;43.534;-5.674;2023-04-01T05:06:16;18.05;;;6.65;;
72437;SDS011;60444;43.534;-5.674;2023-04-01T05:08:43;11.23;;;5.33;;
72437;SDS011;60444;43.534;-5.674;2023-04-01T05:11:11;14.50;;;5.40;;
72437;SDS011;60444;43.534;-5.674;2023-04-01T05:13:38;14.70;;;6.05;;
72437;SDS011;60444;43.534;-5.674;2023-04-01T05:16:07;14.90;;;5.20;;
72437;SDS011;60444;43.534;-5.674;2023-04-01T05:18:34;15.43;;;6.07;;
72437;SDS011;60444;43.534;-5.674;2023-04-01T05:20:59;14.67;;;5.50;;
72437;SDS011;60444;43.534;-5.674;2023-04-01T05:23:25;14.35;;;5.70;;
72437;SDS011;60444;43.534;-5.674;2023-04-01T05:25:50;15.57;;;6.13;;
72437;SDS011;60444;43.534;-5.674;2023-04-01T05:28:18;17.02;;;7.72;;
72437;SDS011;60444;43.534;-5.674;2023-04-01T05:30:44;15.27;;;6.28;;
72437;SDS011;60444;43.534;-5.674;2023-04-01T05:33:10;15.70;;;5.77;;
72437;SDS011;60444;43.534;-5.674;2023-04-01T05:35:38;14.20;;;6.97;;
72437;SDS011;60444;43.534;-5.674;2023-04-01T05:38:04;20.38;;;7.03;;
72437;SDS011;60444;43.534;-5.674;2023-04-01T05:40:30;17.47;;;5.40;;
72437;SDS011;60444;43.534;-5.674;2023-04-01T05:42:55;12.88;;;4.82;;
72437;SDS011;60444;43.534;-5.674;2023-04-01T05:45:21;14.95;;;5.13;;
72437;SDS011;60444;43.534;-5.674;2023-04-01T05:47:47;14.67;;;5.13;;
72437;SDS011;60444;43.534;-5.674;2023-04-01T05:50:12;18.23;;;6.33;;
72437;SDS011;60444;43.534;-5.674;2023-04-01T05:52:38;15.13;;;5.80;;
72437;SDS011;60444;43.534;-5.674;2023-04-01T05:55:04;14.17;;;5.60;;
72437;SDS011;60444;43.534;-5.674;2023-04-01T05:57:30;14.85;;;5.90;;
72437;SDS011;60444;43.534;-5.674;2023-04-01T05:59:56;16.67;;;5.65;;
72437;SDS011;60444;43.534;-5.674;2023-04-01T06:02:22;15.33;;;5.40;;
72437;SDS011;60444;43.534;-5.674;2023-04-01T06:04:48;12.18;;;5.13;;
72437;SDS011;60444;43.534;-5.674;2023-04-01T06:07:14;13.43;;;5.40;;
72437;SDS011;60444;43.534;-5.674;2023-04-01T06:09:42;16.13;;;5.80;;
72437;SDS011;60444;43.534;-5.674;2023-04-01T06:21:14;13.10;;;5.10;;
72437;SDS011;60444;43.534;-5.674;2023-04-01T06:29:21;14.57;;;4.70;;
72437;SDS011;60444;43.534;-5.674;2023-04-01T06:31:58;12.07;;;4.05;;
72437;SDS011;60444;43.534;-5.674;2023-04-01T06:34:52;13.73;;;4.88;;
72437;SDS011;60444;43.534;-5.674;2023-04-01T06:48:42;12.02;;;4.93;;
72437;SDS011;60444;43.534;-5.674;2023-04-01T06:54:26;11.10;;;3.80;;
72437;SDS011;60444;43.534;-5.674;2023-04-01T06:57:08;11.53;;;3.90;;
72437;SDS011;60444;43.534;-5.674;2023-04-01T06:59:54;10.18;;;3.90;;
72437;SDS011;60444;43.534;-5.674;2023-04-01T07:02:43;12.73;;;4.90;;
72437;SDS011;60444;43.534;-5.674;2023-04-01T07:05:18;11.63;;;4.07;;
72437;SDS011;60444;43.534;-5.674;2023-04-01T07:07:45;11.70;;;4.18;;
72437;SDS011;60444;43.534;-5.674;2023-04-01T07:10:17;10.90;;;3.67;;
72437;SDS011;60444;43.534;-5.674;2023-04-01T07:12:51;10.50;;;3.90;;
72437;SDS011;60444;43.534;-5.674;2023-04-01T07:15:21;12.25;;;3.70;;
72437;SDS011;60444;43.534;-5.674;2023-04-01T07:17:52;11.48;;;3.95;;
72437;SDS011;60444;43.534;-5.674;2023-04-01T07:20:30;9.30;;;3.33;;
72437;SDS011;60444;43.534;-5.674;2023-04-01T07:23:02;8.07;;;3.63;;
72437;SDS011;60444;43.534;-5.674;2023-04-01T07:25:31;9.07;;;3.35;;
72437;SDS011;60444;43.534;-5.674;2023-04-01T07:28:11;13.00;;;3.65;;
72437;SDS011;60444;43.534;-5.674;2023-04-01T07:44:28;9.57;;;3.13;;
72437;SDS011;60444;43.534;-5.674;2023-04-01T07:47:12;6.95;;;2.35;;
72437;SDS011;60444;43.534;-5.674;2023-04-01T07:49:57;10.35;;;3.00;;
72437;SDS011;60444;43.534;-5.674;2023-04-01T07:55:18;8.05;;;2.55;;
72437;SDS011;60444;43.534;-5.674;2023-04-01T08:00:24;8.38;;;2.35;;
72437;SDS011;60444;43.534;-5.674;2023-04-01T08:05:40;8.68;;;2.40;;
72437;SDS011;60444;43.534;-5.674;2023-04-01T08:14:03;7.45;;;2.05;;
72437;SDS011;60444;43.534;-5.674;2023-04-01T08:19:06;7.45;;;2.17;;
72437;SDS011;60444;43.534;-5.674;2023-04-01T08:21:47;5.90;;;2.00;;
72437;SDS011;60444;43.534;-5.674;2023-04-01T08:27:06;6.05;;;1.90;;
72437;SDS011;60444;43.534;-5.674;2023-04-01T08:29:46;7.43;;;2.10;;
72437;SDS011;60444;43.534;-5.674;2023-04-01T08:32:17;6.32;;;1.80;;
72437;SDS011;60444;43.534;-5.674;2023-04-01T08:34:57;6.03;;;2.08;;
72437;SDS011;60444;43.534;-5.674;2023-04-01T08:37:32;6.60;;;1.90;;
72437;SDS011;60444;43.534;-5.674;2023-04-01T08:40:10;8.00;;;1.85;;
72437;SDS011;60444;43.534;-5.674;2023-04-01T09:31:50;9.60;;;1.80;;
72437;SDS011;60444;43.534;-5.674;2023-04-01T09:37:17;7.72;;;1.73;;
72437;SDS011;60444;43.534;-5.674;2023-04-01T09:40:22;7.82;;;1.48;;
72437;SDS011;60444;43.534;-5.674;2023-04-01T09:45:47;8.53;;;1.60;;
72437;SDS011;60444;43.534;-5.674;2023-04-01T09:48:20;10.98;;;2.45;;
72437;SDS011;60444;43.534;-5.674;2023-04-01T10:07:39;15.85;;;3.22;;
72437;SDS011;60444;43.534;-5.674;2023-04-01T10:11:00;10.70;;;2.40;;
72437;SDS011;60444;43.534;-5.674;2023-04-01T10:16:14;10.23;;;3.15;;
72437;SDS011;60444;43.534;-5.674;2023-04-01T10:19:05;10.83;;;2.50;;
72437;SDS011;60444;43.534;-5.674;2023-04-01T10:24:14;9.82;;;2.33;;
72437;SDS011;60444;43.534;-5.674;2023-04-01T10:30:01;12.15;;;2.53;;
72437;SDS011;60444;43.534;-5.674;2023-04-01T10:40:51;10.35;;;2.92;;
72437;SDS011;60444;43.534;-5.674;2023-04-01T10:51:52;10.23;;;2.80;;
72437;SDS011;60444;43.534;-5.674;2023-04-01T11:06:52;10.33;;;2.23;;
72437;SDS011;60444;43.534;-5.674;2023-04-01T11:15:31;9.63;;;1.65;;
72437;SDS011;60444;43.534;-5.674;2023-04-01T11:26:28;9.03;;;1.50;;
72437;SDS011;60444;43.534;-5.674;2023-04-01T11:40:27;5.87;;;1.10;;
72437;SDS011;60444;43.534;-5.674;2023-04-01T11:59:05;8.70;;;1.13;;
72437;SDS011;60444;43.534;-5.674;2023-04-01T12:04:38;9.40;;;1.87;;
72437;SDS011;60444;43.534;-5.674;2023-04-01T12:07:21;5.38;;;1.23;;
72437;SDS011;60444;43.534;-5.674;2023-04-01T12:10:12;8.57;;;1.67;;
72437;SDS011;60444;43.534;-5.674;2023-04-01T12:12:48;9.15;;;1.58;;
72437;SDS011;60444;43.534;-5.674;2023-04-01T12:20:50;7.60;;;1.20;;
72437;SDS011;60444;43.534;-5.674;2023-04-01T12:26:00;8.98;;;1.33;;
72437;SDS011;60444;43.534;-5.674;2023-04-01T12:36:50;10.90;;;1.52;;
72437;SDS011;60444;43.534;-5.674;2023-04-01T12:55:01;13.10;;;2.13;;
72437;SDS011;60444;43.534;-5.674;2023-04-01T13:08:23;12.45;;;1.60;;
72437;SDS011;60444;43.534;-5.674;2023-04-01T13:11:07;11.67;;;1.87;;
72437;SDS011;60444;43.534;-5.674;2023-04-01T13:16:34;10.48;;;1.98;;
72437;SDS011;60444;43.534;-5.674;2023-04-01T13:24:25;8.97;;;1.43;;
72437;SDS011;60444;43.534;-5.674;2023-04-01T13:27:14;9.80;;;1.50;;
72437;SDS011;60444;43.534;-5.674;2023-04-01T13:32:50;10.77;;;1.42;;
72437;SDS011;60444;43.534;-5.674;2023-04-01T13:40:40;6.28;;;1.10;;
72437;SDS011;60444;43.534;-5.674;2023-04-01T13:43:43;7.93;;;1.02;;
72437;SDS011;60444;43.534;-5.674;2023-04-01T14:03:08;9.50;;;1.63;;
72437;SDS011;60444;43.534;-5.674;2023-04-01T14:06:05;10.53;;;0.80;;
72437;SDS011;60444;43.534;-5.674;2023-04-01T14:14:31;9.13;;;1.67;;
72437;SDS011;60444;43.534;-5.674;2023-04-01T14:24:57;17.15;;;2.80;;
72437;SDS011;60444;43.534;-5.674;2023-04-01T14:35:42;9.63;;;1.40;;
72437;SDS011;60444;43.534;-5.674;2023-04-01T14:41:32;13.13;;;3.13;;
72437;SDS011;60444;43.534;-5.674;2023-04-01T14:50:40;11.88;;;1.35;;
72437;SDS011;60444;43.534;-5.674;2023-04-01T14:55:34;9.73;;;1.73;;
72437;SDS011;60444;43.534;-5.674;2023-04-01T14:58:16;11.95;;;1.73;;
72437;SDS011;60444;43.534;-5.674;2023-04-01T15:01:07;12.75;;;1.50;;
72437;SDS011;60444;43.534;-5.674;2023-04-01T15:06:56;12.10;;;2.13;;
72437;SDS011;60444;43.534;-5.674;2023-04-01T15:15:29;14.25;;;1.75;;
72437;SDS011;60444;43.534;-5.674;2023-04-01T15:36:53;14.03;;;2.13;;
72437;SDS011;60444;43.534;-5.674;2023-04-01T15:42:23;16.48;;;1.70;;
72437;SDS011;60444;43.534;-5.674;2023-04-01T15:47:39;12.13;;;1.67;;
72437;SDS011;60444;43.534;-5.674;2023-04-01T15:53:43;11.85;;;1.50;;
72437;SDS011;60444;43.534;-5.674;2023-04-01T16:02:07;9.93;;;1.42;;
72437;SDS011;60444;43.534;-5.674;2023-04-01T16:07:31;9.68;;;1.95;;
72437;SDS011;60444;43.534;-5.674;2023-04-01T16:27:37;7.88;;;1.42;;
72437;SDS011;60444;43.534;-5.674;2023-04-01T16:33:09;9.43;;;1.50;;
72437;SDS011;60444;43.534;-5.674;2023-04-01T16:36:07;9.75;;;1.10;;
72437;SDS011;60444;43.534;-5.674;2023-04-01T16:38:42;9.30;;;1.30;;
72437;SDS011;60444;43.534;-5.674;2023-04-01T16:41:29;12.43;;;1.40;;
72437;SDS011;60444;43.534;-5.674;2023-04-01T16:46:39;10.10;;;1.47;;
72437;SDS011;60444;43.534;-5.674;2023-04-01T16:51:59;10.02;;;1.40;;
72437;SDS011;60444;43.534;-5.674;2023-04-01T16:59:53;12.00;;;1.60;;
72437;SDS011;60444;43.534;-5.674;2023-04-01T17:02:28;10.63;;;1.40;;
72437;SDS011;60444;43.534;-5.674;2023-04-01T17:05:12;10.63;;;1.60;;
72437;SDS011;60444;43.534;-5.674;2023-04-01T17:10:37;7.45;;;1.13;;
72437;SDS011;60444;43.534;-5.674;2023-04-01T17:21:06;9.90;;;1.40;;
72437;SDS011;60444;43.534;-5.674;2023-04-01T17:23:51;9.57;;;1.60;;
72437;SDS011;60444;43.534;-5.674;2023-04-01T17:26:33;9.07;;;2.08;;
72437;SDS011;60444;43.534;-5.674;2023-04-01T17:35:32;11.13;;;1.60;;
72437;SDS011;60444;43.534;-5.674;2023-04-01T17:37:46;8.45;;;0.93;;
72437;SDS011;60444;43.534;-5.674;2023-04-01T17:40:49;7.47;;;1.20;;
72437;SDS011;60444;43.534;-5.674;2023-04-01T17:45:55;13.17;;;3.93;;
72437;SDS011;60444;43.534;-5.674;2023-04-01T17:59:37;8.95;;;1.08;;
72437;SDS011;60444;43.534;-5.674;2023-04-01T18:15:45;10.82;;;1.83;;
72437;SDS011;60444;43.534;-5.674;2023-04-01T18:24:20;17.63;;;1.38;;
72437;SDS011;60444;43.534;-5.674;2023-04-01T18:27:06;13.30;;;2.30;;
72437;SDS011;60444;43.534;-5.674;2023-04-01T18:29:40;12.25;;;1.63;;
72437;SDS011;60444;43.534;-5.674;2023-04-01T18:35:14;12.38;;;1.83;;
72437;SDS011;60444;43.534;-5.674;2023-04-01T18:40:21;11.13;;;1.63;;
72437;SDS011;60444;43.534;-5.674;2023-04-01T18:43:12;13.25;;;1.60;;
72437;SDS011;60444;43.534;-5.674;2023-04-01T18:46:06;12.43;;;1.13;;
72437;SDS011;60444;43.534;-5.674;2023-04-01T18:51:53;14.02;;;1.60;;
72437;SDS011;60444;43.534;-5.674;2023-04-01T18:57:02;9.45;;;1.33;;
72437;SDS011;60444;43.534;-5.674;2023-04-01T18:59:39;11.23;;;1.80;;
72437;SDS011;60444;43.534;-5.674;2023-04-01T19:13:21;12.47;;;1.60;;
72437;SDS011;60444;43.534;-5.674;2023-04-01T19:18:38;10.32;;;1.48;;
72437;SDS011;60444;43.534;-5.674;2023-04-01T19:26:27;13.33;;;1.50;;
72437;SDS011;60444;43.534;-5.674;2023-04-01T19:38:04;10.38;;;1.60;;
72437;SDS011;60444;43.534;-5.674;2023-04-01T19:40:47;7.57;;;1.47;;
72437;SDS011;60444;43.534;-5.674;2023-04-01T19:43:21;10.13;;;1.50;;
72437;SDS011;60444;43.534;-5.674;2023-04-01T19:59:51;11.52;;;1.25;;
72437;SDS011;60444;43.534;-5.674;2023-04-01T20:04:55;7.43;;;1.20;;
72437;SDS011;60444;43.534;-5.674;2023-04-01T20:10:03;12.10;;;1.30;;
72437;SDS011;60444;43.534;-5.674;2023-04-01T20:12:48;9.47;;;1.77;;
72437;SDS011;60444;43.534;-5.674;2023-04-01T20:15:41;10.07;;;1.60;;
72437;SDS011;60444;43.534;-5.674;2023-04-01T20:20:55;9.95;;;1.23;;
72437;SDS011;60444;43.534;-5.674;2023-04-01T20:23:38;7.18;;;1.02;;
72437;SDS011;60444;43.534;-5.674;2023-04-01T20:26:09;8.80;;;1.37;;
72437;SDS011;60444;43.534;-5.674;2023-04-01T20:28:42;10.05;;;1.50;;
72437;SDS011;60444;43.534;-5.674;2023-04-01T20:31:42;9.00;;;1.67;;
72437;SDS011;60444;43.534;-5.674;2023-04-01T20:34:33;9.43;;;1.20;;
72437;SDS011;60444;43.534;-5.674;2023-04-01T20:48:11;9.50;;;1.60;;
72437;SDS011;60444;43.534;-5.674;2023-04-01T20:50:58;9.82;;;1.20;;
72437;SDS011;60444;43.534;-5.674;2023-04-01T20:53:29;9.23;;;1.80;;
72437;SDS011;60444;43.534;-5.674;2023-04-01T21:04:51;10.48;;;1.27;;
72437;SDS011;60444;43.534;-5.674;2023-04-01T21:18:35;12.55;;;1.92;;
72437;SDS011;60444;43.534;-5.674;2023-04-01T21:40:31;14.30;;;2.35;;
72437;SDS011;60444;43.534;-5.674;2023-04-01T22:00:00;13.27;;;1.70;;
72437;SDS011;60444;43.534;-5.674;2023-04-01T22:05:25;10.02;;;0.98;;
72437;SDS011;60444;43.534;-5.674;2023-04-01T22:14:01;8.20;;;1.55;;
72437;SDS011;60444;43.534;-5.674;2023-04-01T22:27:56;7.15;;;1.45;;
72437;SDS011;60444;43.534;-5.674;2023-04-01T22:30:38;8.38;;;1.20;;
72437;SDS011;60444;43.534;-5.674;2023-04-01T22:43:41;9.50;;;1.50;;
72437;SDS011;60444;43.534;-5.674;2023-04-01T22:54:35;9.48;;;1.98;;
72437;SDS011;60444;43.534;-5.674;2023-04-01T22:57:16;9.30;;;1.50;;
72437;SDS011;60444;43.534;-5.674;2023-04-01T23:02:47;7.13;;;1.30;;
72437;SDS011;60444;43.534;-5.674;2023-04-01T23:05:17;9.23;;;1.40;;
72437;SDS011;60444;43.534;-5.674;2023-04-01T23:10:42;10.52;;;2.03;;
72437;SDS011;60444;43.534;-5.674;2023-04-01T23:13:18;6.57;;;1.02;;
72437;SDS011;60444;43.534;-5.674;2023-04-01T23:15:48;7.47;;;1.20;;
72437;SDS011;60444;43.534;-5.674;2023-04-01T23:18:20;5.70;;;1.20;;
72437;SDS011;60444;43.534;-5.674;2023-04-01T23:20:54;8.25;;;1.17;;
72437;SDS011;60444;43.534;-5.674;2023-04-01T23:28:50;8.87;;;1.33;;
72437;SDS011;60444;43.534;-5.674;2023-04-01T23:31:25;8.77;;;1.38;;
72437;SDS011;60444;43.534;-5.674;2023-04-01T23:33:54;6.38;;;1.00;;
72437;SDS011;60444;43.534;-5.674;2023-04-01T23:36:21;9.00;;;1.20;;
72437;SDS011;60444;43.534;-5.674;2023-04-01T23:38:47;6.70;;;1.53;;
72437;SDS011;60444;43.534;-5.674;2023-04-01T23:41:22;11.88;;;1.70;;
72437;SDS011;60444;43.534;-5.674;2023-04-01T23:44:01;5.80;;;1.27;;
72437;SDS011;60444;43.534;-5.674;2023-04-01T23:46:30;11.02;;;1.70;;
72437;SDS011;60444;43.534;-5.674;2023-04-01T23:48:58;9.88;;;1.52;;
72437;SDS011;60444;43.534;-5.674;2023-04-01T23:51:26;6.90;;;0.97;;
72437;SDS011;60444;43.534;-5.674;2023-04-01T23:54:38;8.07;;;1.30;;
72437;SDS011;60444;43.534;-5.674;2023-04-01T23:56:48;11.30;;;1.70;;
72437;SDS011;60444;43.534;-5.674;2023-04-01T23:59:30;6.70;;;1.20;;
